Ettrick, Wisconsin
Current Conditions -  °F | °C
As of 3:53 PM on Saturday 25 Oct 2014 (Local Time) from KLSE Reporting Station
Clear Clear  
Wind Chill: 66°   Ceiling: Unl
Heat Index: 66°   Visibility: 10mi
Dew Point: 28°   Wind: 15mph
Humidity: 24%   Direction: 310°NW
Pressure: 29.98"   Gusts: NA
Location:  44.17°N, 91.27°W
Report Text: KLSE 252053Z 31013KT 10SM CLR 19/M02 A2998 RMK AO2 SLP149 T01891022 56006
Loading
Personal Weather Stations






























Interactive Weather Map New forecast layout! Learn more

10-Day Weather Forecast

Advertisements
Track Severe Weather on mobile